Time;durP1;ratioP1;P1;durP2;ratioP2;P2;SDS_P1;SDS_P2;PMS_P1;PMS_P2;Temp;Humidity;BMP_temperature;BMP_pressure;BME280_temperature;BME280_humidity;BME280_pressure;Samples;Min_cycle;Max_cycle;Signal;HPM_P1;HPM_P2
2022/01/25 00:25:03;;;;;;;253.68;130.35;;;-8.30;1.00;;;;;;5053561;28;20502;-77
2022/01/25 00:27:47;;;;;;;277.15;142.93;;;-8.20;1.00;;;;;;5079684;28;20037;-77
2022/01/25 00:33:05;;;;;;;380.63;188.75;;;-8.20;1.00;;;;;;5060834;28;20053;-77
2022/01/25 00:35:33;;;;;;;334.08;170.68;;;-8.10;1.00;;;;;;5066346;28;20099;-77
2022/01/25 00:38:02;;;;;;;394.30;200.13;;;-8.20;1.00;;;;;;5058756;28;20045;-77
2022/01/25 00:40:29;;;;;;;401.98;203.85;;;-8.10;1.00;;;;;;5058364;28;20037;-77
2022/01/25 00:42:57;;;;;;;469.27;233.52;;;-8.10;1.00;;;;;;5058069;28;20064;-77
2022/01/25 00:45:28;;;;;;;444.33;226.48;;;-8.10;1.00;;;;;;5073696;28;20079;-76
2022/01/25 00:47:55;;;;;;;416.75;206.18;;;-8.20;1.00;;;;;;5057131;28;20055;-77
2022/01/25 00:50:23;;;;;;;431.30;217.95;;;-8.30;1.00;;;;;;5058816;28;20060;-77
2022/01/25 00:55:37;;;;;;;417.73;219.67;;;-8.40;1.00;;;;;;5058230;28;20106;-76
2022/01/25 00:58:04;;;;;;;418.80;218.77;;;-8.40;1.00;;;;;;5060328;28;20052;-77
2022/01/25 01:00:32;;;;;;;395.05;211.68;;;-8.40;1.00;;;;;;5055846;28;20049;-77
2022/01/25 01:02:59;;;;;;;394.42;209.48;;;-8.40;1.00;;;;;;5054325;28;20121;-77
2022/01/25 01:05:27;;;;;;;381.00;202.75;;;-8.30;1.00;;;;;;5058626;28;20119;-77
2022/01/25 01:07:54;;;;;;;331.67;176.45;;;-8.30;1.00;;;;;;5057860;28;20041;-77
2022/01/25 01:10:24;;;;;;;287.52;151.45;;;-8.40;1.00;;;;;;5071736;28;20489;-77
2022/01/25 01:15:53;;;;;;;344.15;174.40;;;-8.30;1.00;;;;;;5061223;28;20108;-78
2022/01/25 01:29:34;;;;;;;293.33;148.38;;;-8.60;1.00;;;;;;5057922;28;20088;-77
2022/01/25 01:32:15;;;;;;;316.30;160.27;;;-8.70;1.00;;;;;;5056688;28;20147;-77
2022/01/25 01:35:09;;;;;;;336.13;173.32;;;-8.60;1.00;;;;;;5070844;28;20140;-77
2022/01/25 01:43:11;;;;;;;273.88;139.25;;;-8.40;1.00;;;;;;5050307;28;20049;-77
2022/01/25 01:45:49;;;;;;;272.95;142.63;;;-8.50;1.00;;;;;;5041136;28;20401;-76
2022/01/25 01:48:27;;;;;;;259.15;135.20;;;-8.60;1.00;;;;;;5070989;28;20116;-76
2022/01/25 01:50:58;;;;;;;267.05;136.32;;;-8.70;1.00;;;;;;5071960;28;20059;-77
2022/01/25 01:53:25;;;;;;;261.38;136.23;;;-8.60;1.00;;;;;;5055499;28;20045;-76
2022/01/25 01:55:53;;;;;;;244.55;124.45;;;-8.70;1.00;;;;;;5055904;28;20068;-77
2022/01/25 01:58:20;;;;;;;285.80;145.02;;;-8.70;1.00;;;;;;5038015;28;20526;-78
2022/01/25 02:00:50;;;;;;;277.67;143.38;;;-8.70;1.00;;;;;;5036621;28;20116;-77
2022/01/25 02:03:18;;;;;;;237.25;122.28;;;-8.90;1.00;;;;;;5036081;28;20041;-78
2022/01/25 02:05:47;;;;;;;223.95;115.65;;;-8.90;1.00;;;;;;5038151;28;20518;-77
2022/01/25 02:08:14;;;;;;;190.73;101.40;;;-8.90;1.00;;;;;;5039348;28;20033;-77
2022/01/25 02:10:42;;;;;;;182.55;95.43;;;-8.90;1.00;;;;;;5055608;28;20112;-76
2022/01/25 02:13:11;;;;;;;191.27;97.95;;;-8.80;1.00;;;;;;5057392;28;20044;-78
2022/01/25 02:15:43;;;;;;;192.40;101.32;;;-8.70;1.00;;;;;;5044445;28;20045;-78
2022/01/25 02:23:46;;;;;;;181.57;94.30;;;-8.80;1.00;;;;;;5037170;28;20208;-78
2022/01/25 02:26:14;;;;;;;191.23;98.45;;;-8.90;1.00;;;;;;5036787;28;20406;-78
2022/01/25 02:28:44;;;;;;;270.60;137.25;;;-9.00;1.00;;;;;;5051305;28;20042;-76
2022/01/25 02:31:14;;;;;;;278.08;138.88;;;-9.00;1.00;;;;;;5034504;28;20053;-77
2022/01/25 02:33:42;;;;;;;288.88;144.77;;;-9.20;1.00;;;;;;5034506;28;20515;-77
2022/01/25 02:36:14;;;;;;;275.83;143.20;;;-9.20;1.00;;;;;;5050552;28;20041;-76
2022/01/25 02:38:41;;;;;;;269.77;133.68;;;-9.20;1.00;;;;;;5055034;28;20043;-77
2022/01/25 02:41:09;;;;;;;245.00;125.53;;;-9.30;1.00;;;;;;5054611;28;20124;-77
2022/01/25 02:43:36;;;;;;;238.55;120.95;;;-9.30;1.00;;;;;;5054278;28;20065;-76
2022/01/25 02:46:20;;;;;;;278.73;141.48;;;-9.20;1.00;;;;;;5039382;28;20049;-75
2022/01/25 02:48:50;;;;;;;225.88;115.15;;;-9.20;1.00;;;;;;5034176;28;20410;-75
2022/01/25 02:51:19;;;;;;;188.95;97.22;;;-9.10;1.00;;;;;;5033027;28;20140;-75
2022/01/25 02:53:47;;;;;;;223.00;113.03;;;-9.00;1.00;;;;;;5033095;28;20038;-75
2022/01/25 02:56:15;;;;;;;218.27;112.43;;;-8.90;1.00;;;;;;5049815;28;20139;-75
2022/01/25 02:58:43;;;;;;;232.50;120.13;;;-9.00;1.00;;;;;;5047967;28;20042;-75
2022/01/25 03:01:11;;;;;;;220.25;113.28;;;-9.00;1.00;;;;;;5034083;28;20064;-76
2022/01/25 03:03:38;;;;;;;214.73;109.90;;;-9.00;1.00;;;;;;5037458;28;20124;-75
2022/01/25 03:06:06;;;;;;;223.18;116.72;;;-9.00;1.00;;;;;;5054143;28;20515;-75
2022/01/25 03:08:35;;;;;;;218.70;112.63;;;-8.90;1.00;;;;;;5053641;28;20524;-75
2022/01/25 03:11:03;;;;;;;215.30;113.03;;;-9.00;1.00;;;;;;5054612;28;20127;-75
2022/01/25 03:13:34;;;;;;;223.80;118.10;;;-9.10;1.00;;;;;;5053463;28;20037;-75
2022/01/25 03:16:05;;;;;;;264.08;137.48;;;-9.20;1.00;;;;;;5052488;28;20056;-75
2022/01/25 03:18:43;;;;;;;256.48;134.63;;;-9.40;1.00;;;;;;5047121;28;20051;-75
2022/01/25 03:24:00;;;;;;;222.32;118.32;;;-9.50;1.00;;;;;;5027848;28;20060;-75
2022/01/25 03:26:28;;;;;;;193.43;103.50;;;-9.40;1.00;;;;;;5033654;28;20049;-75
2022/01/25 03:28:56;;;;;;;183.57;99.25;;;-9.40;1.00;;;;;;5033903;28;20045;-75
2022/01/25 03:31:24;;;;;;;188.40;97.60;;;-9.40;1.00;;;;;;5033560;28;20128;-75
2022/01/25 03:33:52;;;;;;;158.02;84.50;;;-9.50;1.00;;;;;;5034504;28;20061;-75
2022/01/25 03:36:20;;;;;;;145.88;79.07;;;-9.40;1.00;;;;;;5049042;28;20098;-75
2022/01/25 03:38:48;;;;;;;162.45;84.28;;;-9.30;1.00;;;;;;5033710;28;20038;-75
2022/01/25 03:41:17;;;;;;;149.05;78.18;;;-9.40;1.00;;;;;;5053582;28;20493;-75
2022/01/25 03:43:52;;;;;;;157.27;82.00;;;-9.40;1.00;;;;;;5052156;28;20045;-76
2022/01/25 03:46:25;;;;;;;156.82;82.28;;;-9.40;1.00;;;;;;5054175;28;20044;-75
2022/01/25 03:51:37;;;;;;;254.48;132.68;;;-9.60;1.00;;;;;;5056081;28;20051;-75
2022/01/25 03:54:05;;;;;;;259.95;134.80;;;-9.60;1.00;;;;;;5062666;28;20108;-76
2022/01/25 03:56:34;;;;;;;259.77;133.90;;;-9.60;1.00;;;;;;5053639;28;20081;-76
2022/01/25 03:59:02;;;;;;;255.80;132.48;;;-9.60;1.00;;;;;;5046046;28;20042;-74
2022/01/25 04:01:30;;;;;;;246.25;131.15;;;-9.50;1.00;;;;;;5033862;28;20041;-75
2022/01/25 04:04:01;;;;;;;229.50;123.00;;;-9.40;1.00;;;;;;5048520;28;20156;-75
2022/01/25 04:06:31;;;;;;;208.40;113.85;;;-9.30;1.00;;;;;;5046452;28;20048;-75
2022/01/25 04:09:00;;;;;;;198.55;106.38;;;-9.30;1.00;;;;;;5073372;28;20045;-75
2022/01/25 04:11:28;;;;;;;198.38;108.72;;;-9.30;1.00;;;;;;5057926;28;20099;-74
2022/01/25 04:13:58;;;;;;;198.85;107.03;;;-9.40;1.00;;;;;;5057299;28;20128;-75
2022/01/25 04:16:31;;;;;;;189.55;101.35;;;-9.40;1.00;;;;;;5049652;28;20038;-75
2022/01/25 04:19:07;;;;;;;196.48;106.88;;;-9.60;1.00;;;;;;5039438;28;20060;-75
2022/01/25 04:24:45;;;;;;;195.48;105.60;;;-9.60;1.00;;;;;;5036705;28;20064;-76
2022/01/25 04:27:13;;;;;;;172.65;91.15;;;-9.60;1.00;;;;;;5050038;28;20072;-75
2022/01/25 04:29:42;;;;;;;175.30;91.82;;;-9.60;1.00;;;;;;5056615;28;20116;-75
2022/01/25 04:32:11;;;;;;;161.25;86.57;;;-9.70;1.00;;;;;;5057442;28;20061;-75
2022/01/25 04:34:43;;;;;;;155.77;82.70;;;-9.70;1.00;;;;;;5065334;28;20049;-74
2022/01/25 04:51:25;;;;;;;155.45;86.72;;;-9.90;1.00;;;;;;5056531;28;20044;-74
2022/01/25 04:54:02;;;;;;;165.90;90.35;;;-10.00;1.00;;;;;;5056271;28;20516;-74
2022/01/25 04:56:36;;;;;;;173.48;93.93;;;-9.90;1.00;;;;;;5065275;28;20065;-75
2022/01/25 04:59:10;;;;;;;191.18;101.38;;;-9.90;1.00;;;;;;5037014;28;20041;-75
2022/01/25 05:01:41;;;;;;;191.35;102.60;;;-9.80;1.00;;;;;;5035655;28;20045;-76
2022/01/25 05:04:12;;;;;;;190.57;104.65;;;-9.80;1.00;;;;;;5036186;28;20102;-76
2022/01/25 05:06:42;;;;;;;191.68;103.22;;;-9.90;1.00;;;;;;5044453;28;20076;-75
2022/01/25 05:09:12;;;;;;;192.77;105.53;;;-10.00;1.00;;;;;;5073029;28;20140;-76
2022/01/25 05:11:45;;;;;;;210.13;109.63;;;-9.90;1.00;;;;;;5055453;28;20037;-75
2022/01/25 05:14:17;;;;;;;224.20;119.45;;;-10.00;1.00;;;;;;5055168;28;20048;-75
2022/01/25 05:16:56;;;;;;;234.15;123.57;;;-10.00;1.00;;;;;;5055611;28;20043;-76
2022/01/25 05:22:04;;;;;;;213.30;112.93;;;-10.20;1.00;;;;;;5055284;28;20041;-75
2022/01/25 05:22:26;;;;;;;216.35;112.05;;;-10.20;1.00;;;;;;5037072;28;20037;-75
2022/01/25 05:24:55;;;;;;;189.57;105.85;;;-10.20;1.00;;;;;;5035900;28;20128;-75
2022/01/25 05:27:26;;;;;;;182.80;96.95;;;-10.20;1.00;;;;;;5038956;28;20072;-75
2022/01/25 05:29:54;;;;;;;195.80;102.78;;;-10.10;1.00;;;;;;5040216;28;20136;-75
2022/01/25 05:32:23;;;;;;;230.15;114.00;;;-10.10;1.00;;;;;;5038889;28;20443;-75
2022/01/25 05:34:51;;;;;;;207.02;107.28;;;-10.20;1.00;;;;;;5039997;28;20098;-75
2022/01/25 05:37:18;;;;;;;219.45;112.88;;;-10.10;1.00;;;;;;5056557;28;20041;-76
2022/01/25 05:39:47;;;;;;;195.45;102.68;;;-10.00;1.00;;;;;;5050305;28;20041;-77
2022/01/25 05:45:18;;;;;;;273.60;136.35;;;-10.00;1.00;;;;;;5035914;28;20071;-76
2022/01/25 05:47:46;;;;;;;247.18;127.90;;;-9.90;1.00;;;;;;5044194;28;20192;-75
2022/01/25 05:50:14;;;;;;;277.63;143.20;;;-9.80;1.00;;;;;;5063555;28;20052;-75
2022/01/25 05:52:42;;;;;;;253.32;138.30;;;-10.00;1.00;;;;;;5055056;28;20119;-75
2022/01/25 05:55:11;;;;;;;258.67;138.07;;;-10.00;1.00;;;;;;5055472;28;20063;-75
2022/01/25 05:57:39;;;;;;;255.05;132.95;;;-10.10;1.00;;;;;;5051892;28;20116;-75
2022/01/25 06:00:08;;;;;;;248.77;132.88;;;-10.10;1.00;;;;;;5051507;28;20128;-76
2022/01/25 06:02:36;;;;;;;275.90;147.13;;;-10.10;1.00;;;;;;5053834;28;20486;-75
2022/01/25 06:05:07;;;;;;;313.40;163.57;;;-10.10;1.00;;;;;;5053616;28;20041;-74
2022/01/25 06:07:35;;;;;;;329.55;170.88;;;-9.90;1.00;;;;;;5053523;28;20068;-75
2022/01/25 06:10:03;;;;;;;359.02;182.23;;;-10.00;1.00;;;;;;5055084;28;20064;-75
2022/01/25 06:12:30;;;;;;;355.48;175.45;;;-9.90;1.00;;;;;;5055440;28;20055;-76
2022/01/25 06:14:58;;;;;;;302.85;158.05;;;-10.00;1.00;;;;;;5040269;28;20048;-75
2022/01/25 06:17:25;;;;;;;358.83;182.00;;;-10.00;1.00;;;;;;5041336;28;20135;-76
2022/01/25 06:19:53;;;;;;;314.35;168.95;;;-10.10;1.00;;;;;;5052874;28;20037;-76
2022/01/25 06:22:22;;;;;;;294.23;155.52;;;-10.10;1.00;;;;;;5055393;28;20072;-76
2022/01/25 06:24:49;;;;;;;288.63;147.68;;;-10.10;1.00;;;;;;5053615;28;20486;-75
2022/01/25 06:27:16;;;;;;;273.55;139.15;;;-10.20;1.00;;;;;;5055670;28;20036;-76
2022/01/25 06:29:44;;;;;;;240.73;126.80;;;-10.10;1.00;;;;;;5059365;28;20051;-76
2022/01/25 06:32:12;;;;;;;235.20;123.13;;;-10.00;1.00;;;;;;5066736;28;20520;-75
2022/01/25 06:34:39;;;;;;;247.73;127.28;;;-9.90;1.00;;;;;;5045646;28;20135;-76
2022/01/25 06:37:08;;;;;;;292.10;144.57;;;-9.80;1.00;;;;;;5055646;28;20049;-75
2022/01/25 06:39:37;;;;;;;303.48;159.90;;;-9.80;1.00;;;;;;5054389;28;20060;-76
2022/01/25 06:42:05;;;;;;;280.98;145.63;;;-9.90;1.00;;;;;;5054191;28;20041;-76
2022/01/25 06:44:34;;;;;;;272.25;138.77;;;-9.80;1.00;;;;;;5041228;28;20099;-75
2022/01/25 06:47:02;;;;;;;268.63;140.18;;;-9.90;1.00;;;;;;5034292;28;20140;-75
2022/01/25 06:49:30;;;;;;;286.98;147.05;;;-9.80;1.00;;;;;;5038472;28;20041;-75
2022/01/25 06:51:58;;;;;;;328.15;171.15;;;-9.70;1.00;;;;;;5052944;28;20057;-76
2022/01/25 06:54:25;;;;;;;323.38;169.00;;;-9.60;1.00;;;;;;5042810;28;20033;-75
2022/01/25 06:56:54;;;;;;;330.50;170.20;;;-9.50;1.00;;;;;;5054326;28;20123;-76
2022/01/25 06:59:22;;;;;;;318.38;169.80;;;-9.40;1.00;;;;;;5055176;28;20565;-76
2022/01/25 07:01:49;;;;;;;324.63;168.27;;;-9.20;1.00;;;;;;5055109;28;20052;-76
2022/01/25 07:04:17;;;;;;;322.42;166.73;;;-9.10;1.00;;;;;;5049568;28;20120;-77
2022/01/25 07:06:44;;;;;;;332.40;166.75;;;-9.00;1.00;;;;;;5048485;28;20045;-77
2022/01/25 07:09:12;;;;;;;313.63;165.88;;;-8.70;1.00;;;;;;5054975;28;20068;-76
2022/01/25 07:11:39;;;;;;;322.95;169.82;;;-8.80;1.00;;;;;;5051885;28;20144;-77
2022/01/25 07:14:08;;;;;;;338.25;174.38;;;-8.60;1.00;;;;;;5036431;28;20096;-76
2022/01/25 07:16:36;;;;;;;334.17;170.07;;;-8.60;1.00;;;;;;5043743;28;20066;-77
2022/01/25 07:19:03;;;;;;;355.50;187.68;;;-8.50;1.00;;;;;;5035487;28;20052;-76
2022/01/25 07:21:31;;;;;;;383.30;201.68;;;-8.50;1.00;;;;;;5038367;28;20037;-76
2022/01/25 07:23:58;;;;;;;386.95;203.55;;;-8.40;1.00;;;;;;5052571;28;20063;-77
2022/01/25 07:26:26;;;;;;;410.48;213.23;;;-8.30;1.00;;;;;;5045689;28;20073;-76
2022/01/25 07:28:53;;;;;;;404.88;216.90;;;-8.10;1.00;;;;;;5047759;28;20509;-77
2022/01/25 07:31:22;;;;;;;415.25;218.30;;;-7.90;1.00;;;;;;5053925;28;20044;-76
2022/01/25 07:33:50;;;;;;;411.02;218.70;;;-7.70;1.00;;;;;;5047716;28;20080;-76
2022/01/25 07:36:17;;;;;;;402.77;213.40;;;-7.70;1.00;;;;;;5041389;28;20046;-76
2022/01/25 07:38:45;;;;;;;384.13;196.32;;;-7.60;1.00;;;;;;5038657;28;20057;-76
2022/01/25 07:41:12;;;;;;;353.50;184.65;;;-7.50;1.00;;;;;;5049611;28;20045;-76
2022/01/25 07:43:40;;;;;;;267.58;138.68;;;-7.30;1.00;;;;;;5044947;28;20048;-77
2022/01/25 07:46:07;;;;;;;223.25;119.10;;;-7.30;1.00;;;;;;5033668;28;20095;-77
2022/01/25 07:48:36;;;;;;;301.70;149.77;;;-7.10;1.00;;;;;;5040007;28;20057;-77
2022/01/25 07:51:04;;;;;;;309.00;155.57;;;-7.10;1.00;;;;;;5050652;28;20121;-76
2022/01/25 07:53:32;;;;;;;349.08;175.80;;;-7.00;1.00;;;;;;5042943;28;20048;-75
2022/01/25 07:55:59;;;;;;;342.80;171.02;;;-7.00;1.00;;;;;;5054582;28;20055;-76
2022/01/25 07:58:27;;;;;;;361.33;179.07;;;-6.90;1.00;;;;;;5045004;28;20075;-75
2022/01/25 08:00:54;;;;;;;383.13;193.63;;;-6.80;1.00;;;;;;5050434;28;20076;-76
2022/01/25 08:03:23;;;;;;;344.98;176.40;;;-6.60;1.00;;;;;;5042773;28;20029;-76
2022/01/25 08:05:52;;;;;;;369.05;184.23;;;-6.50;1.00;;;;;;5055344;28;20071;-77
2022/01/25 08:08:20;;;;;;;348.98;168.30;;;-6.40;1.00;;;;;;5048699;28;20047;-76
2022/01/25 08:10:47;;;;;;;360.73;180.88;;;-6.40;1.00;;;;;;5048903;28;20073;-76
2022/01/25 08:13:15;;;;;;;342.58;161.05;;;-6.30;1.00;;;;;;5046503;28;20119;-75
2022/01/25 08:15:43;;;;;;;335.67;156.57;;;-6.20;1.00;;;;;;5054289;28;20033;-76
2022/01/25 08:18:15;;;;;;;330.92;159.27;;;-6.10;1.00;;;;;;5059024;28;20064;-77
2022/01/25 08:20:43;;;;;;;310.15;141.05;;;-5.90;1.00;;;;;;5053170;28;20064;-76
2022/01/25 08:23:12;;;;;;;314.25;150.23;;;-5.80;1.00;;;;;;5053944;28;20045;-77
2022/01/25 08:25:40;;;;;;;300.48;139.30;;;-5.70;1.00;;;;;;5055468;28;20041;-76
2022/01/25 08:28:15;;;;;;;299.63;140.57;;;-5.50;1.00;;;;;;5060939;28;20045;-76
2022/01/25 08:30:48;;;;;;;320.30;145.25;;;-5.50;1.00;;;;;;5056891;28;20063;-76
2022/01/25 08:33:16;;;;;;;300.55;138.15;;;-5.40;1.00;;;;;;5046038;28;20520;-76
2022/01/25 08:35:44;;;;;;;291.52;132.82;;;-5.50;1.00;;;;;;5040007;28;20510;-76
2022/01/25 08:38:13;;;;;;;269.52;121.18;;;-5.30;1.00;;;;;;5034979;28;20042;-76
2022/01/25 08:40:40;;;;;;;290.25;128.18;;;-5.10;1.00;;;;;;5046592;28;20124;-76
2022/01/25 08:43:08;;;;;;;283.05;123.07;;;-5.10;1.00;;;;;;5056782;28;20124;-75
2022/01/25 08:45:35;;;;;;;296.25;130.60;;;-5.00;1.00;;;;;;5053425;28;20095;-75
2022/01/25 08:48:03;;;;;;;300.77;131.25;;;-5.00;1.00;;;;;;5052521;28;20049;-76
2022/01/25 08:50:31;;;;;;;275.88;119.40;;;-4.90;1.00;;;;;;5052963;28;20126;-76
2022/01/25 08:52:59;;;;;;;264.25;118.53;;;-4.80;1.00;;;;;;5054198;28;20135;-75
2022/01/25 08:55:28;;;;;;;154.45;69.68;;;-4.80;1.00;;;;;;5049642;28;20116;-75
2022/01/25 08:57:57;;;;;;;138.88;62.65;;;-4.70;1.00;;;;;;5062885;28;20045;-75
2022/01/25 09:00:24;;;;;;;160.98;70.38;;;-4.60;1.00;;;;;;5058835;28;20075;-74
2022/01/25 09:02:52;;;;;;;156.40;71.35;;;-4.50;1.00;;;;;;5057148;28;20040;-76
2022/01/25 09:05:19;;;;;;;171.30;76.15;;;-4.50;1.00;;;;;;5057045;28;20478;-74
2022/01/25 09:07:47;;;;;;;77.22;35.67;;;-4.40;1.00;;;;;;5062373;28;20537;-76
2022/01/25 09:10:14;;;;;;;110.95;51.53;;;-4.30;1.00;;;;;;5064689;28;20055;-75
2022/01/25 09:12:43;;;;;;;201.18;90.57;;;-4.30;1.00;;;;;;5057686;28;20140;-75
2022/01/25 09:15:11;;;;;;;200.77;90.35;;;-4.10;1.00;;;;;;5044211;28;20083;-76
2022/01/25 09:17:39;;;;;;;200.52;91.97;;;-4.00;1.00;;;;;;5058107;28;20045;-76
2022/01/25 09:20:07;;;;;;;170.43;80.32;;;-3.80;1.00;;;;;;5045970;28;20053;-75
2022/01/25 09:22:35;;;;;;;182.63;80.53;;;-3.60;1.00;;;;;;5048793;28;20428;-76
2022/01/25 09:25:04;;;;;;;171.68;75.13;;;-3.30;1.00;;;;;;5057341;28;20065;-76
2022/01/25 09:27:31;;;;;;;145.48;69.43;;;-3.30;1.00;;;;;;5054833;28;20045;-75
2022/01/25 09:30:00;;;;;;;164.30;77.90;;;-3.20;1.00;;;;;;5046336;28;20041;-75
2022/01/25 09:32:28;;;;;;;145.02;68.18;;;-3.10;1.00;;;;;;5038015;28;20053;-75
2022/01/25 09:34:55;;;;;;;120.85;55.78;;;-3.10;1.00;;;;;;5037209;28;20411;-76
2022/01/25 09:37:23;;;;;;;120.57;57.22;;;-2.90;1.00;;;;;;5037360;28;20053;-76
2022/01/25 09:39:50;;;;;;;115.35;55.88;;;-2.80;1.00;;;;;;5036133;28;20052;-75
2022/01/25 09:42:20;;;;;;;124.53;57.08;;;-2.90;1.00;;;;;;5035684;28;20133;-76
2022/01/25 09:44:48;;;;;;;117.75;55.95;;;-2.80;1.00;;;;;;5046652;28;20076;-75
2022/01/25 09:47:17;;;;;;;103.70;51.38;;;-2.70;1.00;;;;;;5041738;28;20045;-76
2022/01/25 09:49:45;;;;;;;89.88;43.53;;;-2.60;1.00;;;;;;5048260;28;20211;-75
2022/01/25 09:52:13;;;;;;;64.68;32.42;;;-2.50;51.20;;;;;;5055351;28;20087;-75
2022/01/25 09:54:42;;;;;;;65.03;29.67;;;-2.30;44.90;;;;;;5052756;28;20049;-75
2022/01/25 09:57:10;;;;;;;62.13;27.92;;;-2.20;38.60;;;;;;5057579;28;20049;-75
2022/01/25 09:59:37;;;;;;;63.10;31.13;;;-2.20;46.00;;;;;;5057608;28;20128;-75
2022/01/25 10:02:05;;;;;;;73.53;35.97;;;-2.10;43.20;;;;;;5045924;28;20063;-74
2022/01/25 10:04:55;;;;;;;63.25;32.97;;;-2.00;41.20;;;;;;5061316;28;20510;-78
2022/01/25 10:07:30;;;;;;;64.38;31.35;;;-1.90;15.50;;;;;;5061792;28;20075;-75
2022/01/25 10:09:57;;;;;;;67.55;31.80;;;-1.70;19.00;;;;;;5055980;28;20048;-75
2022/01/25 10:12:24;;;;;;;59.92;29.52;;;-1.60;24.70;;;;;;5053612;28;20045;-76
2022/01/25 10:14:55;;;;;;;63.30;31.50;;;-1.50;26.00;;;;;;5037945;28;20060;-76
2022/01/25 10:17:31;;;;;;;66.00;30.83;;;-1.40;12.30;;;;;;5043956;28;20060;-78
2022/01/25 10:20:00;;;;;;;53.20;24.23;;;-1.30;12.30;;;;;;5044847;28;20056;-75
2022/01/25 10:22:28;;;;;;;52.20;26.42;;;-1.40;13.20;;;;;;5054545;28;20135;-74
2022/01/25 10:24:56;;;;;;;50.55;24.88;;;-1.30;14.00;;;;;;5063764;28;20053;-75
2022/01/25 10:27:58;;;;;;;47.13;24.20;;;-1.20;15.10;;;;;;5058268;28;20590;-77
2022/01/25 10:30:19;;;;;;;44.45;22.33;;;-1.10;13.60;;;;;;5055398;28;20066;-78
2022/01/25 10:32:47;;;;;;;53.20;26.50;;;-1.10;10.90;;;;;;5068262;28;20067;-77
2022/01/25 10:35:17;;;;;;;54.53;26.48;;;-1.00;1.00;;;;;;5041549;28;20147;-79
2022/01/25 10:37:44;;;;;;;54.70;26.77;;;-0.90;2.10;;;;;;5047500;28;20055;-76
2022/01/25 10:40:12;;;;;;;55.88;28.10;;;-0.90;1.00;;;;;;5053148;28;20041;-76
2022/01/25 10:42:41;;;;;;;59.28;26.33;;;-0.70;6.40;;;;;;5063234;28;20080;-76
2022/01/25 10:45:17;;;;;;;55.97;28.10;;;-0.60;2.80;;;;;;5057486;28;20051;-76
2022/01/25 10:47:49;;;;;;;50.53;25.75;;;-0.50;3.00;;;;;;5072515;28;20049;-77
2022/01/25 10:50:20;;;;;;;55.80;28.63;;;-0.30;8.50;;;;;;5059798;28;20037;-77
2022/01/25 10:53:03;;;;;;;56.50;26.17;;;-0.20;22.60;;;;;;5058172;28;20045;-76
2022/01/25 10:55:41;;;;;;;55.78;26.30;;;-0.10;5.20;;;;;;5056499;28;20149;-76
2022/01/25 10:58:10;;;;;;;59.92;28.88;;;-0.10;2.70;;;;;;5050192;28;20067;-75
2022/01/25 11:00:41;;;;;;;60.50;29.45;;;-0.10;2.80;;;;;;5056661;28;20091;-76
2022/01/25 11:03:09;;;;;;;74.68;34.05;;;-0.10;4.80;;;;;;5069681;28;20048;-76
2022/01/25 11:05:41;;;;;;;63.15;30.45;;;0.00;1.00;;;;;;5048385;28;20037;-76
2022/01/25 11:08:13;;;;;;;64.30;29.48;;;0.10;1.00;;;;;;5057967;28;20072;-76
2022/01/25 11:10:48;;;;;;;60.42;29.05;;;0.20;1.00;;;;;;5053233;28;20494;-76
2022/01/25 11:13:34;;;;;;;54.10;26.63;;;0.20;1.00;;;;;;5054875;28;20084;-76
2022/01/25 11:16:03;;;;;;;;;;;0.30;1.00;;;;;;5039127;28;20045;-76
2022/01/25 11:18:31;;;;;;;54.67;24.80;;;0.40;17.10;;;;;;5037603;28;19921;-76
2022/01/25 11:21:02;;;;;;;56.67;27.27;;;0.50;16.00;;;;;;5058369;28;20064;-76
2022/01/25 11:23:33;;;;;;;59.10;26.15;;;0.50;12.50;;;;;;5076554;28;20127;-76
2022/01/25 11:26:02;;;;;;;50.75;26.40;;;0.50;13.40;;;;;;5057257;28;20073;-76
2022/01/25 11:28:32;;;;;;;60.95;27.98;;;0.40;14.00;;;;;;5073048;28;20047;-76
2022/01/25 11:31:02;;;;;;;70.05;33.75;;;0.50;13.30;;;;;;5051841;28;20468;-76
2022/01/25 11:33:31;;;;;;;62.65;30.52;;;0.60;14.60;;;;;;5055428;28;20456;-77
2022/01/25 11:36:00;;;;;;;71.22;32.22;;;0.70;1.00;;;;;;5075405;28;20040;-76
2022/01/25 11:38:34;;;;;;;82.07;39.22;;;0.80;1.00;;;;;;5060478;28;20560;-77
2022/01/25 11:41:07;;;;;;;75.43;38.78;;;0.70;1.00;;;;;;5055317;28;20045;-76
2022/01/25 11:43:35;;;;;;;78.72;35.70;;;0.70;5.90;;;;;;5057601;28;20124;-77
2022/01/25 11:46:06;;;;;;;76.35;36.53;;;0.70;11.80;;;;;;5063747;28;20045;-77
2022/01/25 11:48:43;;;;;;;74.82;36.33;;;0.70;11.10;;;;;;5061997;28;20045;-78
2022/01/25 11:51:18;;;;;;;79.55;37.90;;;0.70;11.00;;;;;;5063395;28;20049;-78
2022/01/25 11:53:49;;;;;;;80.50;38.60;;;0.80;9.40;;;;;;5077847;28;20049;-76
2022/01/25 11:56:17;;;;;;;85.10;39.55;;;1.00;11.50;;;;;;5080041;28;20040;-77
2022/01/25 11:58:55;;;;;;;88.00;39.40;;;1.10;8.70;;;;;;5059861;28;20414;-77
2022/01/25 12:01:26;;;;;;;66.53;32.17;;;1.10;7.20;;;;;;5056097;28;20041;-75
2022/01/25 12:03:57;;;;;;;64.05;31.38;;;1.20;14.70;;;;;;5054962;28;20045;-75
2022/01/25 12:06:32;;;;;;;73.20;34.83;;;1.30;27.20;;;;;;5055312;28;20037;-77
2022/01/25 12:09:10;;;;;;;74.72;38.03;;;1.40;19.30;;;;;;5056398;28;20045;-78
2022/01/25 12:11:44;;;;;;;84.35;37.13;;;1.40;1.00;;;;;;5057426;28;20041;-77
2022/01/25 12:14:25;;;;;;;71.38;38.05;;;1.40;1.00;;;;;;5049052;28;20562;-76
2022/01/25 12:16:58;;;;;;;75.03;32.95;;;1.50;38.00;;;;;;5056552;28;20422;-76
2022/01/25 12:19:39;;;;;;;72.18;34.97;;;1.40;35.60;;;;;;5059747;28;20480;-76
2022/01/25 12:22:41;;;;;;;77.90;34.28;;;1.40;35.60;;;;;;5058673;28;20055;-75
2022/01/25 12:25:20;;;;;;;62.17;30.70;;;1.50;38.40;;;;;;5054354;28;20121;-76
2022/01/25 12:27:53;;;;;;;69.50;34.38;;;1.50;33.30;;;;;;5068625;28;20032;-78
2022/01/25 12:30:34;;;;;;;72.38;36.25;;;1.60;35.30;;;;;;5074811;28;20486;-77
2022/01/25 12:33:04;;;;;;;78.10;36.88;;;1.70;35.60;;;;;;5060452;28;20140;-76
2022/01/25 12:35:49;;;;;;;82.68;39.70;;;1.70;37.60;;;;;;5059959;28;20041;-76
2022/01/25 12:38:24;;;;;;;80.28;39.08;;;1.80;40.90;;;;;;5058150;28;20048;-77
2022/01/25 12:41:07;;;;;;;69.07;34.07;;;1.70;39.50;;;;;;5075811;28;20063;-76
2022/01/25 12:43:39;;;;;;;76.93;37.80;;;1.70;40.20;;;;;;5059676;28;20298;-76
2022/01/25 12:46:10;;;;;;;69.88;35.63;;;1.70;41.90;;;;;;5057155;28;20095;-75
2022/01/25 12:48:41;;;;;;;66.38;33.22;;;1.80;41.40;;;;;;5058745;28;20124;-75
2022/01/25 12:51:11;;;;;;;61.35;33.10;;;1.80;36.50;;;;;;5057656;28;20049;-75
2022/01/25 12:53:42;;;;;;;65.63;33.67;;;1.80;40.90;;;;;;5068565;28;20073;-76
2022/01/25 12:56:14;;;;;;;59.05;30.35;;;1.80;41.10;;;;;;5073834;28;20090;-75
2022/01/25 12:58:43;;;;;;;66.75;31.65;;;1.80;37.20;;;;;;5059042;28;20052;-75
2022/01/25 13:01:12;;;;;;;58.65;30.80;;;1.90;41.40;;;;;;5074914;28;20048;-77
2022/01/25 13:03:48;;;;;;;68.53;32.55;;;1.90;39.90;;;;;;5067823;28;20143;-74
2022/01/25 13:06:18;;;;;;;67.40;31.52;;;1.80;39.90;;;;;;5060389;28;20108;-74
2022/01/25 13:08:54;;;;;;;62.85;32.95;;;1.80;37.50;;;;;;5058238;28;20037;-75
2022/01/25 13:11:25;;;;;;;;;;;1.90;37.80;;;;;;5054966;28;20127;-74
2022/01/25 13:14:14;;;;;;;63.58;32.00;;;1.90;35.30;;;;;;5073257;28;19974;-75
2022/01/25 13:16:49;;;;;;;58.72;30.58;;;2.00;33.90;;;;;;5059165;28;20079;-75
2022/01/25 13:19:20;;;;;;;64.65;32.17;;;1.90;34.00;;;;;;5055072;28;20041;-75
2022/01/25 13:21:52;;;;;;;64.93;33.17;;;2.00;34.90;;;;;;5067851;28;20057;-74
2022/01/25 13:24:24;;;;;;;84.95;34.53;;;2.00;21.00;;;;;;5056161;28;20033;-76
2022/01/25 13:27:04;;;;;;;65.85;34.00;;;1.90;33.10;;;;;;5055709;28;20549;-75
2022/01/25 13:32:23;;;;;;;69.13;34.50;;;1.90;21.60;;;;;;5053168;28;20391;-75
2022/01/25 13:35:13;;;;;;;64.63;34.88;;;2.00;20.90;;;;;;5054909;28;20628;-75
2022/01/25 13:37:41;;;;;;;71.00;35.92;;;2.00;21.00;;;;;;5049795;28;20067;-75
2022/01/25 13:40:12;;;;;;;76.65;38.40;;;2.10;21.80;;;;;;5055129;28;20055;-75
2022/01/25 13:42:45;;;;;;;76.43;37.33;;;2.10;22.00;;;;;;5055945;28;20098;-76
2022/01/25 13:48:06;;;;;;;85.85;42.75;;;2.10;23.40;;;;;;5071487;28;20045;-74
2022/01/25 13:50:36;;;;;;;86.75;40.45;;;2.10;33.90;;;;;;5056235;28;20387;-76
2022/01/25 13:53:04;;;;;;;82.30;41.63;;;2.20;33.40;;;;;;5066292;28;20131;-75
2022/01/25 13:55:34;;;;;;;82.90;39.80;;;2.10;34.50;;;;;;5055842;28;20244;-76
2022/01/25 13:58:02;;;;;;;80.30;40.25;;;2.10;33.50;;;;;;5057199;28;20063;-75
2022/01/25 14:00:30;;;;;;;87.35;41.97;;;2.10;23.00;;;;;;5072355;28;20095;-75
2022/01/25 14:02:59;;;;;;;89.40;42.75;;;2.10;23.10;;;;;;5056348;28;20045;-76
2022/01/25 14:05:30;;;;;;;79.20;42.13;;;2.10;22.30;;;;;;5069583;28;20041;-76
2022/01/25 14:07:58;;;;;;;77.25;39.80;;;2.10;22.30;;;;;;5052098;28;20517;-75